Time;durP1;ratioP1;P1;durP2;ratioP2;P2;SDS_P1;SDS_P2;PMS_P1;PMS_P2;Temp;Humidity;BMP_temperature;BMP_pressure;BME280_temperature;BME280_humidity;BME280_pressure;Samples;Min_cycle;Max_cycle;Signal;HPM_P1;HPM_P2
2022/07/28 00:02:08;;;;;;;5.70;1.02;;;;;;;20.07;50.76;100689.81;5035429;28;20373;-59
2022/07/28 00:04:34;;;;;;;3.08;0.47;;;;;;;20.05;50.65;100685.50;5034345;28;20041;-59
2022/07/28 00:06:59;;;;;;;4.22;0.80;;;;;;;19.76;51.46;100698.66;5017851;28;20033;-59
2022/07/28 00:09:26;;;;;;;2.78;0.75;;;;;;;19.65;51.74;100688.56;5016705;28;20076;-59
2022/07/28 00:11:51;;;;;;;3.25;0.90;;;;;;;19.52;52.20;100691.94;5017474;28;20032;-59
2022/07/28 00:14:16;;;;;;;4.15;0.73;;;;;;;19.57;51.73;100695.22;5017612;28;20128;-59
2022/07/28 00:16:42;;;;;;;5.82;0.85;;;;;;;19.44;52.20;100695.88;5035388;28;20461;-59
2022/07/28 00:19:07;;;;;;;2.63;0.65;;;;;;;19.43;52.72;100688.84;5035243;28;20420;-58
2022/07/28 00:21:33;;;;;;;2.75;0.73;;;;;;;19.35;53.32;100690.16;5035534;28;20029;-59
2022/07/28 00:23:58;;;;;;;3.25;0.70;;;;;;;19.33;52.94;100695.59;5033949;28;20449;-59
2022/07/28 00:26:24;;;;;;;3.90;0.98;;;;;;;19.05;53.98;100687.31;5034106;28;20061;-59
2022/07/28 00:28:49;;;;;;;5.47;1.05;;;;;;;19.08;53.98;100688.03;5034001;28;20377;-58
2022/07/28 00:31:15;;;;;;;4.88;0.90;;;;;;;18.94;54.14;100680.75;5035003;28;20385;-58
2022/07/28 00:33:40;;;;;;;5.00;0.80;;;;;;;18.90;54.29;100681.84;5034977;28;20037;-59
2022/07/28 00:36:07;;;;;;;2.10;0.80;;;;;;;19.01;54.12;100685.75;5034586;28;20473;-59
2022/07/28 00:38:36;;;;;;;1.90;0.80;;;;;;;19.03;54.42;100689.19;5034897;28;20108;-59
2022/07/28 00:41:11;;;;;;;1.55;0.75;;;;;;;18.97;54.84;100681.53;5033433;28;20507;-59
2022/07/28 00:43:41;;;;;;;3.42;1.10;;;;;;;19.04;54.91;100688.28;5034871;28;20034;-59
2022/07/28 00:46:08;;;;;;;2.40;0.55;;;;;;;19.22;54.05;100689.09;5033433;28;20037;-59
2022/07/28 00:48:43;;;;;;;3.92;1.10;;;;;;;19.08;55.39;100681.84;5016929;28;20055;-59
2022/07/28 00:51:09;;;;;;;5.85;1.10;;;;;;;19.01;55.03;100696.41;5033300;28;20029;-58
2022/07/28 00:53:38;;;;;;;3.40;0.90;;;;;;;19.01;55.49;100683.09;5033138;28;20030;-59
2022/07/28 00:56:04;;;;;;;2.60;0.82;;;;;;;18.93;55.49;100687.00;5034591;28;20036;-59
2022/07/28 00:58:30;;;;;;;4.82;0.70;;;;;;;19.03;55.30;100679.44;5033106;28;20034;-59
2022/07/28 01:00:56;;;;;;;3.72;0.90;;;;;;;19.02;55.69;100675.03;5033387;28;20037;-59
2022/07/28 01:03:22;;;;;;;3.20;0.65;;;;;;;19.03;55.53;100676.78;5033069;28;20025;-59
2022/07/28 01:06:06;;;;;;;3.00;0.80;;;;;;;19.14;55.88;100676.19;5032932;28;20021;-59
2022/07/28 01:08:59;;;;;;;3.70;0.70;;;;;;;19.16;56.76;100669.00;5034417;28;20032;-59
2022/07/28 01:11:31;;;;;;;2.95;0.60;;;;;;;18.81;56.89;100666.34;5034281;28;20074;-59
2022/07/28 01:14:10;;;;;;;2.05;0.52;;;;;;;18.90;57.06;100676.50;5032914;28;20022;-59
2022/07/28 01:17:09;;;;;;;4.47;0.50;;;;;;;18.75;57.90;100674.66;5034091;28;20037;-59
2022/07/28 01:20:04;;;;;;;1.35;0.75;;;;;;;19.05;56.85;100672.22;5034142;28;20033;-59
2022/07/28 01:22:34;;;;;;;1.80;0.80;;;;;;;19.00;56.23;100670.75;5032649;28;20463;-59
2022/07/28 01:25:37;;;;;;;2.42;0.80;;;;;;;18.94;57.37;100667.44;5033952;28;20108;-59
2022/07/28 01:28:23;;;;;;;2.50;0.70;;;;;;;18.68;58.41;100667.91;5032509;28;20030;-58
2022/07/28 01:31:04;;;;;;;3.13;0.80;;;;;;;18.92;56.55;100664.00;5017252;28;20025;-58
2022/07/28 01:33:38;;;;;;;2.00;0.60;;;;;;;18.84;57.85;100660.88;5032608;28;20022;-59
2022/07/28 01:36:16;;;;;;;1.67;0.60;;;;;;;18.72;58.38;100669.50;5032361;28;20137;-59
2022/07/28 01:38:44;;;;;;;2.15;0.70;;;;;;;18.91;57.53;100658.75;5032555;28;20036;-59
2022/07/28 01:41:18;;;;;;;2.78;0.60;;;;;;;19.00;57.00;100655.63;5033835;28;20144;-59
2022/07/28 01:43:50;;;;;;;1.52;0.70;;;;;;;19.01;57.65;100659.13;5032749;28;20064;-59
2022/07/28 01:46:19;;;;;;;2.83;0.88;;;;;;;18.86;58.03;100660.78;5032382;28;20473;-59
2022/07/28 01:48:47;;;;;;;3.33;0.73;;;;;;;18.91;57.50;100654.31;5032330;28;20444;-59
2022/07/28 01:51:14;;;;;;;1.73;0.65;;;;;;;19.05;57.32;100653.56;5032291;28;20510;-59
2022/07/28 01:53:42;;;;;;;2.03;0.70;;;;;;;19.09;57.29;100657.78;5032499;28;20041;-59
2022/07/28 01:56:09;;;;;;;3.40;0.80;;;;;;;19.11;57.35;100661.25;5032160;28;20037;-59
2022/07/28 01:58:37;;;;;;;2.72;0.80;;;;;;;18.82;59.01;100664.53;5015828;28;20075;-59
2022/07/28 02:01:04;;;;;;;1.83;0.80;;;;;;;18.72;58.89;100661.50;5032225;28;20025;-59
2022/07/28 02:03:33;;;;;;;2.33;0.70;;;;;;;19.08;57.76;100666.72;5015760;28;20088;-58
2022/07/28 02:06:01;;;;;;;3.47;0.90;;;;;;;19.19;57.56;100664.38;5033406;28;20164;-59
2022/07/28 02:08:29;;;;;;;2.53;0.90;;;;;;;19.07;58.24;100656.13;5033392;28;20104;-59
2022/07/28 02:13:43;;;;;;;2.03;0.85;;;;;;;19.00;58.46;100662.75;5033783;28;20506;-59
2022/07/28 02:16:11;;;;;;;1.65;0.60;;;;;;;19.05;58.67;100650.91;5032093;28;20025;-59
2022/07/28 02:18:38;;;;;;;3.20;0.80;;;;;;;19.11;58.68;100655.91;5033385;28;20057;-59
2022/07/28 02:21:05;;;;;;;2.38;1.10;;;;;;;18.80;59.08;100658.47;5032006;28;20029;-59
2022/07/28 02:23:33;;;;;;;3.13;0.70;;;;;;;18.94;58.84;100653.25;5031860;28;20033;-59
2022/07/28 02:26:02;;;;;;;2.72;0.82;;;;;;;19.12;58.48;100662.09;5031990;28;20037;-59
2022/07/28 02:28:27;;;;;;;4.05;1.00;;;;;;;19.05;58.74;100656.22;5031969;28;20026;-59
2022/07/28 02:31:03;;;;;;;3.45;0.82;;;;;;;18.92;59.96;100677.31;5033226;28;20022;-59
2022/07/28 02:33:33;;;;;;;2.38;0.70;;;;;;;19.11;58.89;100660.34;5036093;28;20108;-59
2022/07/28 02:36:03;;;;;;;3.22;0.80;;;;;;;19.27;58.34;100655.09;5035587;28;20045;-59
2022/07/28 02:38:34;;;;;;;2.42;0.70;;;;;;;19.00;59.65;100662.75;5035906;28;20056;-59
2022/07/28 02:41:07;;;;;;;5.03;1.13;;;;;;;18.87;60.11;100662.50;5019720;28;20033;-59
2022/07/28 02:43:37;;;;;;;;;;;;;;;18.72;61.36;100674.81;5036161;28;20033;-59
2022/07/28 02:46:09;;;;;;;1.88;0.82;;;;;;;18.89;59.81;100672.13;5037094;28;19935;-59
2022/07/28 02:48:37;;;;;;;3.37;1.13;;;;;;;18.57;60.86;100675.56;5035600;28;20021;-59
2022/07/28 02:51:04;;;;;;;2.35;0.82;;;;;;;18.69;60.24;100673.13;5035416;28;20330;-59
2022/07/28 02:53:30;;;;;;;3.17;1.13;;;;;;;18.51;61.45;100678.50;5035598;28;20013;-59
2022/07/28 02:55:57;;;;;;;3.25;1.13;;;;;;;18.31;61.99;100677.72;5036930;28;20040;-59
2022/07/28 02:58:25;;;;;;;4.35;1.20;;;;;;;18.25;62.22;100690.44;5037074;28;20029;-59
2022/07/28 03:00:53;;;;;;;3.25;1.20;;;;;;;18.34;61.85;100679.34;5018994;28;20037;-59
2022/07/28 03:03:19;;;;;;;2.67;1.13;;;;;;;18.36;62.17;100682.81;5035264;28;20021;-59
2022/07/28 03:05:45;;;;;;;4.35;1.33;;;;;;;18.27;62.31;100678.78;5018897;28;20037;-59
2022/07/28 03:08:11;;;;;;;3.03;1.10;;;;;;;18.26;62.96;100682.38;5018908;28;20048;-59
2022/07/28 03:10:37;;;;;;;3.08;0.95;;;;;;;18.52;61.58;100682.91;5035262;28;20461;-59
2022/07/28 03:13:05;;;;;;;2.15;0.90;;;;;;;18.48;61.81;100676.00;5035144;28;20021;-59
2022/07/28 03:15:31;;;;;;;3.03;0.98;;;;;;;18.58;61.66;100680.78;5035013;28;20021;-59
2022/07/28 03:17:58;;;;;;;3.42;1.13;;;;;;;18.49;61.90;100675.06;5018570;28;20075;-59
2022/07/28 03:20:24;;;;;;;2.45;1.00;;;;;;;18.53;61.95;100666.84;5035128;28;20116;-59
2022/07/28 03:22:49;;;;;;;3.25;1.10;;;;;;;18.67;61.47;100666.16;5036393;28;20040;-59
2022/07/28 03:25:33;;;;;;;4.10;1.20;;;;;;;18.53;63.05;100666.84;5036012;28;20465;-59
2022/07/28 03:28:01;;;;;;;2.65;1.30;;;;;;;18.78;61.05;100662.97;5034835;28;20029;-59
2022/07/28 03:30:40;;;;;;;2.47;1.05;;;;;;;18.85;61.84;100661.72;5034862;28;20035;-59
2022/07/28 03:33:05;;;;;;;4.40;1.25;;;;;;;18.82;61.19;100664.53;5034941;28;20029;-59
2022/07/28 03:35:32;;;;;;;2.72;0.80;;;;;;;18.90;60.86;100660.53;5034584;28;20435;-59
2022/07/28 03:38:04;;;;;;;6.03;1.35;;;;;;;19.04;60.71;100659.84;5035825;28;20511;-59
2022/07/28 03:40:31;;;;;;;3.92;1.40;;;;;;;19.16;60.17;100674.31;5034736;28;20116;-59
2022/07/28 03:43:02;;;;;;;2.58;1.20;;;;;;;19.33;60.02;100676.94;5018014;28;20030;-59
2022/07/28 03:45:28;;;;;;;2.88;1.02;;;;;;;19.36;59.68;100674.13;5033679;28;20033;-59
2022/07/28 03:47:55;;;;;;;6.15;1.10;;;;;;;19.31;60.03;100684.16;5018139;28;20040;-59
2022/07/28 03:50:26;;;;;;;2.38;1.02;;;;;;;19.41;59.76;100679.19;5034320;28;20033;-59
2022/07/28 03:52:52;;;;;;;2.38;0.82;;;;;;;19.50;59.31;100681.34;5035580;28;20030;-59
2022/07/28 03:55:18;;;;;;;3.72;1.35;;;;;;;19.44;59.53;100687.88;5034366;28;20462;-59
2022/07/28 03:57:44;;;;;;;4.45;1.20;;;;;;;19.26;60.22;100683.53;5034520;28;20084;-58
2022/07/28 04:00:11;;;;;;;2.13;1.00;;;;;;;19.59;59.12;100682.66;5034366;28;20141;-58
2022/07/28 04:02:37;;;;;;;6.38;1.23;;;;;;;19.60;59.43;100684.41;5034055;28;20026;-59
2022/07/28 04:05:03;;;;;;;4.25;1.00;;;;;;;19.80;58.58;100681.53;5034171;28;20440;-59
2022/07/28 04:07:28;;;;;;;1.95;0.90;;;;;;;19.92;58.46;100688.00;5033999;28;20076;-59
2022/07/28 04:09:54;;;;;;;2.03;0.90;;;;;;;19.90;58.50;100690.72;5034066;28;20538;-59
2022/07/28 04:12:19;;;;;;;2.97;0.90;;;;;;;19.98;58.21;100695.63;5035526;28;20652;-58
2022/07/28 04:14:44;;;;;;;1.98;1.00;;;;;;;20.09;58.12;100690.56;5035216;28;20022;-59
2022/07/28 04:17:10;;;;;;;3.00;1.00;;;;;;;19.97;58.55;100698.41;5035269;28;20086;-58
2022/07/28 04:19:35;;;;;;;4.07;0.90;;;;;;;20.17;57.56;100693.66;5033937;28;20373;-59
2022/07/28 04:22:01;;;;;;;2.75;0.95;;;;;;;20.19;57.74;100701.59;5035091;28;20061;-58
2022/07/28 04:24:26;;;;;;;5.82;1.40;;;;;;;20.39;57.20;100709.31;5035166;28;20049;-58
2022/07/28 04:26:51;;;;;;;2.50;0.95;;;;;;;20.47;56.75;100700.88;5035100;28;20033;-59
2022/07/28 04:29:17;;;;;;;3.22;1.08;;;;;;;20.62;56.57;100699.13;5035030;28;20033;-58
2022/07/28 04:31:43;;;;;;;3.75;1.10;;;;;;;20.66;56.25;100708.69;5034993;28;20036;-58
2022/07/28 04:34:09;;;;;;;6.30;1.33;;;;;;;20.27;57.10;100712.69;5033684;28;20041;-58
2022/07/28 04:36:40;;;;;;;3.42;1.23;;;;;;;20.25;57.31;100714.56;5033373;28;20049;-58
2022/07/28 04:39:07;;;;;;;2.53;1.17;;;;;;;20.30;57.19;100712.50;5033922;28;20116;-58
2022/07/28 04:41:33;;;;;;;3.38;0.80;;;;;;;20.30;57.18;100712.50;5034724;28;20017;-58
2022/07/28 04:43:59;;;;;;;4.03;1.00;;;;;;;20.32;56.92;100710.63;5017186;28;20084;-58
2022/07/28 04:46:24;;;;;;;2.05;0.80;;;;;;;20.45;56.76;100710.78;5033503;28;20033;-59
2022/07/28 04:48:50;;;;;;;3.50;1.02;;;;;;;20.66;56.31;100714.88;5034551;28;20033;-58
2022/07/28 04:51:16;;;;;;;2.35;1.10;;;;;;;20.74;55.98;100717.09;5034565;28;20057;-59
2022/07/28 04:53:41;;;;;;;2.97;1.02;;;;;;;20.73;56.19;100720.75;5034451;28;20342;-58
2022/07/28 04:56:07;;;;;;;4.97;1.20;;;;;;;20.81;55.88;100726.50;5034609;28;20030;-58
2022/07/28 04:58:32;;;;;;;3.95;1.02;;;;;;;20.83;56.11;100724.59;5034519;28;20419;-58
2022/07/28 05:00:58;;;;;;;3.83;0.95;;;;;;;20.92;55.80;100731.22;5016724;28;20083;-58
2022/07/28 05:03:26;;;;;;;3.30;0.80;;;;;;;21.08;55.31;100739.16;5032999;28;20029;-59
2022/07/28 05:05:52;;;;;;;3.50;1.02;;;;;;;20.91;55.86;100741.03;5034328;28;20431;-58
2022/07/28 05:08:17;;;;;;;3.75;1.00;;;;;;;20.75;56.17;100737.53;5033096;28;20030;-58
2022/07/28 05:10:42;;;;;;;2.80;1.08;;;;;;;20.91;55.51;100738.38;5034351;28;20024;-58
2022/07/28 05:13:08;;;;;;;4.75;1.75;;;;;;;20.90;55.91;100738.44;5033031;28;20052;-59
2022/07/28 05:15:33;;;;;;;7.47;1.42;;;;;;;21.03;55.41;100741.25;5032697;28;20025;-58
2022/07/28 05:17:59;;;;;;;5.60;1.30;;;;;;;20.88;55.89;100745.69;5034012;28;20026;-58
2022/07/28 05:20:25;;;;;;;4.10;1.20;;;;;;;20.96;55.40;100743.44;5034150;28;20029;-58
2022/07/28 05:22:52;;;;;;;2.63;1.05;;;;;;;21.00;55.46;100744.97;5016283;28;20037;-58
2022/07/28 05:25:33;;;;;;;6.47;1.13;;;;;;;21.07;55.58;100750.81;5016520;28;20116;-58
2022/07/28 05:27:59;;;;;;;5.20;1.23;;;;;;;21.10;55.23;100746.13;5016298;28;20385;-58
2022/07/28 05:30:24;;;;;;;4.53;1.00;;;;;;;21.04;55.35;100757.19;5033789;28;20025;-58
2022/07/28 05:32:49;;;;;;;2.38;1.10;;;;;;;21.15;55.10;100761.91;5032511;28;20350;-58
2022/07/28 05:35:15;;;;;;;6.28;1.10;;;;;;;21.27;55.06;100761.16;5033905;28;20049;-58
2022/07/28 05:37:41;;;;;;;4.03;1.25;;;;;;;21.08;55.35;100765.88;5033758;28;20021;-58
2022/07/28 05:40:12;;;;;;;4.47;1.10;;;;;;;21.21;55.12;100768.69;5033811;28;20036;-58
2022/07/28 05:42:39;;;;;;;7.07;1.25;;;;;;;21.02;55.74;100768.91;5033727;28;20029;-58
2022/07/28 05:45:07;;;;;;;3.60;1.10;;;;;;;21.03;55.34;100771.50;5048946;28;20021;-58
2022/07/28 05:47:44;;;;;;;4.95;1.13;;;;;;;20.81;56.27;100776.38;5032505;28;20033;-58
2022/07/28 05:50:10;;;;;;;3.90;1.23;;;;;;;21.14;55.23;100778.88;5033877;28;20028;-58
2022/07/28 05:52:36;;;;;;;6.30;1.63;;;;;;;21.13;55.31;100778.00;5032402;28;20379;-58
2022/07/28 05:55:02;;;;;;;5.75;1.30;;;;;;;21.19;55.08;100770.59;5032468;28;20472;-58
2022/07/28 05:57:27;;;;;;;2.70;1.00;;;;;;;21.40;54.67;100780.03;5032223;28;20025;-57
2022/07/28 05:59:53;;;;;;;4.32;1.30;;;;;;;21.13;55.37;100785.16;5033467;28;20469;-58
2022/07/28 06:02:18;;;;;;;6.28;1.60;;;;;;;21.05;55.71;100790.09;5033452;28;20037;-58
2022/07/28 06:04:44;;;;;;;3.45;1.25;;;;;;;21.33;55.22;100798.22;5032325;28;20112;-58
2022/07/28 06:07:09;;;;;;;3.75;1.55;;;;;;;21.10;55.36;100796.88;5032915;28;20041;-58
2022/07/28 06:09:34;;;;;;;5.00;1.40;;;;;;;21.06;55.49;100807.84;5032185;28;20040;-59
2022/07/28 06:12:00;;;;;;;4.50;1.23;;;;;;;21.32;55.08;100807.22;5032189;28;20033;-58
2022/07/28 06:14:26;;;;;;;8.80;1.20;;;;;;;21.64;54.00;100809.75;5015883;28;20033;-58
2022/07/28 06:16:51;;;;;;;4.90;1.30;;;;;;;21.33;54.98;100822.28;5033366;28;20021;-58
2022/07/28 06:19:18;;;;;;;6.88;1.55;;;;;;;21.55;54.62;100810.31;5033290;28;20030;-58
2022/07/28 06:21:43;;;;;;;6.00;1.70;;;;;;;21.22;55.22;100815.81;5015788;28;20341;-58
2022/07/28 06:24:09;;;;;;;3.38;1.40;;;;;;;21.11;55.60;100824.50;5032101;28;20480;-61
2022/07/28 06:26:38;;;;;;;6.72;1.67;;;;;;;21.24;55.05;100827.28;5033258;28;20112;-58
2022/07/28 06:29:04;;;;;;;4.53;1.40;;;;;;;20.95;55.91;100837.00;5033222;28;20041;-58
2022/07/28 06:31:30;;;;;;;5.95;1.50;;;;;;;20.73;56.52;100824.00;5031869;28;20117;-58
2022/07/28 06:33:55;;;;;;;4.50;1.20;;;;;;;21.12;55.30;100839.56;5033099;28;20112;-60
2022/07/28 06:36:21;;;;;;;4.43;1.17;;;;;;;20.70;56.35;100841.06;5033139;28;20508;-59
2022/07/28 06:38:46;;;;;;;6.03;1.25;;;;;;;20.96;55.41;100838.72;5033267;28;20022;-60
2022/07/28 06:41:12;;;;;;;4.18;1.25;;;;;;;21.20;55.13;100839.97;5032917;28;20104;-60
2022/07/28 06:43:37;;;;;;;8.55;1.85;;;;;;;20.99;55.54;100834.06;5033181;28;20028;-60
2022/07/28 06:46:02;;;;;;;6.05;1.50;;;;;;;21.17;54.71;100834.78;5033274;28;20034;-59
2022/07/28 06:48:28;;;;;;;3.38;1.50;;;;;;;21.29;54.55;100834.06;5032093;28;20033;-60
2022/07/28 06:50:55;;;;;;;3.95;1.13;;;;;;;21.52;53.79;100832.75;5033154;28;20420;-60
2022/07/28 06:53:22;;;;;;;3.85;1.35;;;;;;;21.61;53.79;100834.00;5033201;28;20032;-60
2022/07/28 06:55:50;;;;;;;3.28;1.40;;;;;;;21.64;53.60;100836.50;5031779;28;20037;-60
2022/07/28 06:58:16;;;;;;;4.07;1.20;;;;;;;21.38;54.38;100830.91;5015151;28;20087;-60
2022/07/28 07:00:41;;;;;;;4.63;1.25;;;;;;;21.34;54.41;100834.72;5032894;28;20033;-60
2022/07/28 07:03:07;;;;;;;5.30;1.10;;;;;;;21.58;53.49;100836.84;5032930;28;20076;-59
2022/07/28 07:05:32;;;;;;;2.17;1.00;;;;;;;21.89;53.05;100836.72;5015071;28;20446;-59
2022/07/28 07:07:58;;;;;;;3.25;1.00;;;;;;;22.06;52.54;100843.72;5032736;28;20438;-60
2022/07/28 07:10:23;;;;;;;3.47;1.20;;;;;;;21.99;52.81;100837.00;5031603;28;20029;-60
2022/07/28 07:12:49;;;;;;;4.93;1.33;;;;;;;22.38;51.55;100847.06;5031463;28;20028;-60
2022/07/28 07:15:14;;;;;;;4.25;1.00;;;;;;;22.26;51.76;100839.81;5032890;28;20428;-60
2022/07/28 07:17:40;;;;;;;4.65;0.85;;;;;;;22.49;51.15;100845.50;5015276;28;20021;-60
2022/07/28 07:20:09;;;;;;;6.55;1.10;;;;;;;22.29;50.74;100844.94;5035081;28;20033;-60
2022/07/28 07:22:40;;;;;;;5.38;1.10;;;;;;;22.81;49.82;100841.59;5034968;28;20043;-60
2022/07/28 07:25:11;;;;;;;3.53;1.00;;;;;;;22.74;49.63;100856.38;5034970;28;20021;-60
2022/07/28 07:27:37;;;;;;;3.03;1.17;;;;;;;22.56;50.73;100860.22;5036366;28;20045;-60
2022/07/28 07:30:06;;;;;;;3.15;0.85;;;;;;;22.82;49.68;100848.69;5034815;28;20527;-60
2022/07/28 07:32:32;;;;;;;3.80;0.85;;;;;;;23.20;49.11;100849.81;5036173;28;20021;-60
2022/07/28 07:34:58;;;;;;;3.47;0.88;;;;;;;23.56;48.50;100851.84;5034873;28;20060;-61
2022/07/28 07:37:23;;;;;;;2.83;0.90;;;;;;;23.75;48.03;100855.00;5034817;28;20033;-60
2022/07/28 07:39:49;;;;;;;6.40;0.93;;;;;;;23.42;47.55;100859.94;5036307;28;20022;-60
2022/07/28 07:42:15;;;;;;;4.00;0.80;;;;;;;23.86;47.13;100859.63;5034751;28;20108;-60
2022/07/28 07:44:40;;;;;;;3.40;0.93;;;;;;;23.97;46.86;100854.34;5034662;28;20108;-60
2022/07/28 07:47:08;;;;;;;2.85;0.90;;;;;;;24.37;46.00;100856.88;5035918;28;20032;-60
2022/07/28 07:49:33;;;;;;;3.40;1.20;;;;;;;24.41;45.89;100862.94;5018160;28;20087;-61
2022/07/28 07:51:58;;;;;;;4.85;0.80;;;;;;;24.04;46.98;100869.06;5035729;28;20384;-60
2022/07/28 07:54:24;;;;;;;3.20;0.98;;;;;;;24.27;46.53;100867.44;5034483;28;20078;-60
2022/07/28 07:56:49;;;;;;;4.78;0.93;;;;;;;23.93;46.78;100874.31;5035853;28;20041;-61
2022/07/28 07:59:15;;;;;;;2.75;0.85;;;;;;;23.85;47.11;100874.84;5034356;28;20462;-60
2022/07/28 08:01:40;;;;;;;5.60;0.90;;;;;;;23.62;47.66;100875.56;5035583;28;20061;-60
2022/07/28 08:04:06;;;;;;;5.65;1.10;;;;;;;24.02;46.83;100864.78;5035660;28;20068;-60
2022/07/28 08:06:34;;;;;;;4.20;0.88;;;;;;;24.56;45.43;100864.50;5035285;28;20033;-60
2022/07/28 08:08:59;;;;;;;2.92;1.02;;;;;;;24.93;44.61;100869.88;5035352;28;20487;-60
2022/07/28 08:11:25;;;;;;;3.72;0.70;;;;;;;24.94;44.56;100869.78;5034268;28;20127;-60
2022/07/28 08:13:50;;;;;;;2.28;0.70;;;;;;;24.63;44.94;100873.00;5034457;28;20100;-60
2022/07/28 08:16:16;;;;;;;1.95;0.70;;;;;;;24.43;45.32;100879.81;5035185;28;20389;-60
2022/07/28 08:18:42;;;;;;;4.45;0.93;;;;;;;24.12;45.76;100879.25;5035476;28;20428;-58
2022/07/28 08:21:11;;;;;;;2.70;0.77;;;;;;;23.67;46.46;100883.31;5035293;28;20030;-60
2022/07/28 08:23:37;;;;;;;3.58;0.60;;;;;;;23.84;46.70;100885.69;5033777;28;20029;-60
2022/07/28 08:26:03;;;;;;;3.00;0.73;;;;;;;24.47;45.37;100878.63;5033810;28;20051;-60
2022/07/28 08:28:28;;;;;;;5.15;0.70;;;;;;;25.02;44.38;100879.97;5033776;28;20506;-60
2022/07/28 08:30:54;;;;;;;3.38;0.70;;;;;;;25.67;43.28;100882.22;5034433;28;20029;-60
2022/07/28 08:33:20;;;;;;;2.72;0.70;;;;;;;25.59;42.84;100890.00;5035058;28;20029;-61
2022/07/28 08:35:47;;;;;;;2.53;0.50;;;;;;;25.08;42.98;100884.88;5034643;28;20057;-60
2022/07/28 08:38:14;;;;;;;3.45;0.85;;;;;;;24.58;43.85;100881.41;5000880;28;20120;-60
2022/07/28 08:40:41;;;;;;;4.13;0.75;;;;;;;24.52;44.31;100889.88;5033395;28;20053;-60
2022/07/28 08:43:12;;;;;;;3.70;0.60;;;;;;;24.18;44.91;100892.28;5033487;28;20033;-60
2022/07/28 08:45:40;;;;;;;;;;;;;;;24.09;44.74;100896.44;5035236;28;20056;-60
2022/07/28 08:48:08;;;;;;;2.22;0.65;;;;;;;24.13;45.12;100897.06;5033405;28;19909;-61
2022/07/28 08:50:34;;;;;;;3.15;0.80;;;;;;;24.58;44.23;100902.88;5033215;28;20591;-60
2022/07/28 08:53:00;;;;;;;3.78;0.70;;;;;;;25.02;43.07;100890.72;5016764;28;20095;-60
2022/07/28 08:55:28;;;;;;;1.48;0.40;;;;;;;25.01;42.39;100899.72;5033183;28;20477;-60
2022/07/28 08:57:55;;;;;;;5.18;0.55;;;;;;;25.24;42.44;100890.84;5033244;28;20303;-60
2022/07/28 09:00:25;;;;;;;2.60;0.50;;;;;;;25.45;41.97;100891.03;5017140;28;20084;-60
2022/07/28 09:02:51;;;;;;;3.58;0.75;;;;;;;25.97;41.25;100897.84;5033149;28;20025;-61
2022/07/28 09:05:19;;;;;;;4.22;0.75;;;;;;;26.19;39.95;100901.53;5033177;28;20059;-60
2022/07/28 09:07:49;;;;;;;2.78;0.45;;;;;;;25.17;40.54;100904.84;5033075;28;20029;-60
2022/07/28 09:10:16;;;;;;;3.38;0.52;;;;;;;24.95;41.70;100916.31;5034459;28;20017;-60
2022/07/28 09:12:42;;;;;;;3.85;0.60;;;;;;;24.85;41.82;100899.16;5032991;28;20060;-60
2022/07/28 09:15:09;;;;;;;5.35;1.02;;;;;;;25.34;40.70;100896.41;5034169;28;20049;-61
2022/07/28 09:17:35;;;;;;;2.22;0.60;;;;;;;25.42;40.85;100895.84;5034279;28;20040;-60
2022/07/28 09:20:02;;;;;;;4.60;0.60;;;;;;;25.06;41.55;100900.28;5032802;28;20083;-60
2022/07/28 09:22:31;;;;;;;4.68;0.70;;;;;;;24.89;41.69;100901.50;5033059;28;20087;-60
2022/07/28 09:25:19;;;;;;;2.88;0.70;;;;;;;24.67;41.90;100902.22;5016753;28;20033;-60
2022/07/28 09:27:44;;;;;;;1.67;0.50;;;;;;;24.66;42.13;100900.50;5034095;28;20373;-60
2022/07/28 09:30:10;;;;;;;2.75;0.50;;;;;;;25.02;41.68;100901.47;5016425;28;20025;-60
2022/07/28 09:32:37;;;;;;;5.13;2.38;;;;;;;24.88;41.56;100910.53;5032556;28;20021;-60
2022/07/28 09:35:02;;;;;;;3.72;0.80;;;;;;;25.44;40.90;100902.78;5015909;28;20056;-60
2022/07/28 09:37:28;;;;;;;3.40;0.80;;;;;;;25.65;40.17;100905.66;5032839;28;20033;-59
2022/07/28 09:39:58;;;;;;;2.85;0.43;;;;;;;25.15;40.49;100913.06;5033884;28;20475;-60
2022/07/28 09:42:24;;;;;;;1.52;0.50;;;;;;;25.10;41.11;100912.53;5032827;28;20068;-61
2022/07/28 09:45:06;;;;;;;1.70;0.73;;;;;;;24.79;40.68;100912.06;5032314;28;20033;-60
2022/07/28 09:47:32;;;;;;;4.85;0.80;;;;;;;24.98;41.63;100910.72;5032425;28;20037;-60
2022/07/28 09:49:58;;;;;;;2.28;0.75;;;;;;;25.04;41.47;100910.25;5032150;28;20461;-60
2022/07/28 09:52:32;;;;;;;3.00;0.80;;;;;;;25.31;41.24;100912.78;5033408;28;20030;-60
2022/07/28 09:55:06;;;;;;;3.35;0.63;;;;;;;25.35;40.99;100918.78;5032151;28;20128;-60
2022/07/28 09:57:34;;;;;;;3.13;0.50;;;;;;;25.50;40.66;100923.00;5032266;28;20040;-60
2022/07/28 10:00:00;;;;;;;3.08;1.00;;;;;;;25.42;41.23;100925.41;5032653;28;20500;-60
2022/07/28 10:02:30;;;;;;;1.92;0.75;;;;;;;25.75;40.66;100925.53;5032145;28;20362;-60
2022/07/28 10:04:56;;;;;;;1.75;0.68;;;;;;;25.78;40.83;100922.66;5033556;28;20017;-61
2022/07/28 10:07:21;;;;;;;2.55;0.40;;;;;;;26.12;40.08;100916.47;5032181;28;20033;-61
2022/07/28 10:09:59;;;;;;;3.65;0.70;;;;;;;26.23;38.53;100917.34;5033500;28;20028;-60
2022/07/28 10:12:27;;;;;;;4.43;0.80;;;;;;;26.07;39.81;100921.38;5033296;28;20029;-60
2022/07/28 10:14:55;;;;;;;2.65;0.57;;;;;;;26.18;39.82;100919.53;5032023;28;20025;-61
2022/07/28 10:17:31;;;;;;;3.47;0.60;;;;;;;26.08;39.86;100917.69;5015687;28;20362;-60
2022/07/28 10:20:05;;;;;;;2.28;0.60;;;;;;;25.55;40.28;100926.19;5031959;28;20368;-61
2022/07/28 10:22:36;;;;;;;3.95;0.70;;;;;;;24.76;41.46;100944.53;5033317;28;20454;-60
2022/07/28 10:25:11;;;;;;;2.00;0.45;;;;;;;24.97;41.23;100933.19;5032260;28;20473;-60
2022/07/28 10:27:40;;;;;;;2.22;0.52;;;;;;;25.26;41.44;100923.03;5031935;28;20029;-60
2022/07/28 10:30:06;;;;;;;2.55;0.50;;;;;;;25.69;40.82;100917.91;5032035;28;20021;-60
2022/07/28 10:32:37;;;;;;;3.10;0.60;;;;;;;25.83;40.05;100921.44;5015632;28;20466;-60
2022/07/28 10:35:09;;;;;;;1.75;0.50;;;;;;;25.95;40.21;100913.25;5031943;28;20450;-60
2022/07/28 10:37:42;;;;;;;3.43;1.03;;;;;;;25.85;39.63;100919.47;5032038;28;20029;-60
2022/07/28 10:40:09;;;;;;;4.60;0.60;;;;;;;26.25;39.40;100915.41;5031820;28;20029;-60
2022/07/28 10:42:35;;;;;;;2.22;0.43;;;;;;;26.22;39.41;100928.25;5031805;28;20080;-60
2022/07/28 10:45:03;;;;;;;3.70;0.75;;;;;;;26.26;39.40;100927.88;5031742;28;20095;-60
2022/07/28 10:47:29;;;;;;;4.32;0.70;;;;;;;26.00;40.00;100929.03;5031689;28;20469;-60
2022/07/28 10:49:55;;;;;;;5.20;0.75;;;;;;;25.85;40.66;100939.16;5032977;28;20055;-60
2022/07/28 10:52:22;;;;;;;4.78;0.70;;;;;;;26.27;40.02;100934.13;5031854;28;20095;-60
2022/07/28 10:55:19;;;;;;;4.47;0.75;;;;;;;26.32;38.88;100931.91;5018496;28;20030;-60
2022/07/28 10:58:17;;;;;;;9.23;1.08;;;;;;;26.53;39.20;100929.38;5035832;28;20451;-60
2022/07/28 11:00:51;;;;;;;5.00;0.63;;;;;;;26.54;39.12;100931.09;5036746;28;20028;-60
2022/07/28 11:03:35;;;;;;;4.70;0.77;;;;;;;26.38;38.64;100933.28;5035317;28;20124;-60
2022/07/28 11:06:39;;;;;;;3.15;0.77;;;;;;;26.46;38.66;100930.88;5036798;28;20037;-60
2022/07/28 11:09:16;;;;;;;2.67;0.88;;;;;;;26.18;39.40;100935.69;5035349;28;20049;-60
2022/07/28 11:11:46;;;;;;;1.80;0.55;;;;;;;26.47;39.12;100929.88;5035254;28;20031;-61
2022/07/28 11:14:24;;;;;;;3.35;0.70;;;;;;;25.99;39.54;100940.81;5035091;28;20507;-61
2022/07/28 11:16:59;;;;;;;2.28;0.70;;;;;;;26.27;39.19;100943.03;5035110;28;20025;-60
2022/07/28 11:19:24;;;;;;;3.70;0.60;;;;;;;26.97;38.37;100938.38;5036369;28;20051;-60
2022/07/28 11:22:18;;;;;;;3.33;0.70;;;;;;;26.66;38.01;100948.97;5036320;28;20116;-60
2022/07/28 11:24:55;;;;;;;4.93;0.73;;;;;;;26.34;38.02;100939.88;5036173;28;20037;-60
2022/07/28 11:27:44;;;;;;;2.53;0.70;;;;;;;26.51;37.60;100934.88;5036318;28;20021;-60
2022/07/28 11:30:31;;;;;;;3.05;0.70;;;;;;;26.93;36.54;100939.63;5035041;28;20461;-60
2022/07/28 11:33:01;;;;;;;4.63;0.85;;;;;;;26.99;38.13;100941.84;5036520;28;20025;-60
2022/07/28 11:35:30;;;;;;;4.07;0.65;;;;;;;26.21;39.41;100946.25;5034371;28;20104;-61
2022/07/28 11:38:02;;;;;;;2.67;0.90;;;;;;;25.98;38.88;100929.19;5036007;28;20022;-60